Time;durP1;ratioP1;P1;durP2;ratioP2;P2;SDS_P1;SDS_P2;PMS_P1;PMS_P2;Temp;Humidity;BMP_temperature;BMP_pressure;BME280_temperature;BME280_humidity;BME280_pressure;Samples;Min_cycle;Max_cycle;Signal;HPM_P1;HPM_P2
2023/12/24 00:01:38;;;;;;;13.60;7.40;;;-0.50;99.90;;;;;;5033794;28;20026;-81
2023/12/24 00:04:04;;;;;;;18.35;9.70;;;-0.50;99.90;;;;;;5032610;28;20032;-81
2023/12/24 00:06:29;;;;;;;12.23;7.82;;;-0.60;99.90;;;;;;5032617;28;20026;-78
2023/12/24 00:08:55;;;;;;;16.88;8.57;;;-0.60;99.90;;;;;;5021898;28;20053;-78
2023/12/24 00:11:20;;;;;;;16.23;9.27;;;-0.50;99.90;;;;;;5032385;28;20018;-78
2023/12/24 00:13:46;;;;;;;16.10;8.90;;;-0.50;99.90;;;;;;5032332;28;20026;-78
2023/12/24 00:16:12;;;;;;;20.33;9.07;;;-0.50;99.90;;;;;;5032341;28;20021;-78
2023/12/24 00:18:37;;;;;;;16.27;9.50;;;-0.50;99.90;;;;;;5033110;28;20037;-81
2023/12/24 00:21:03;;;;;;;16.45;9.85;;;-0.50;99.90;;;;;;5032523;28;20029;-81
2023/12/24 00:23:29;;;;;;;15.70;9.65;;;-0.60;99.90;;;;;;5031820;28;20125;-78
2023/12/24 00:25:54;;;;;;;16.50;8.80;;;-0.50;99.90;;;;;;5033570;28;20028;-81
2023/12/24 00:28:20;;;;;;;18.48;10.43;;;-0.60;99.90;;;;;;5031979;28;20024;-81
2023/12/24 00:30:46;;;;;;;15.65;9.98;;;-0.50;99.90;;;;;;5032113;28;20018;-78
2023/12/24 00:33:11;;;;;;;18.05;9.60;;;-0.50;99.90;;;;;;5027441;28;20082;-78
2023/12/24 00:35:37;;;;;;;24.13;10.82;;;-0.60;99.90;;;;;;5033146;28;20087;-81
2023/12/24 00:38:03;;;;;;;16.45;9.10;;;-0.50;99.90;;;;;;5031873;28;20029;-78
2023/12/24 00:40:28;;;;;;;18.48;11.48;;;-0.60;99.90;;;;;;5031875;28;20014;-81
2023/12/24 00:42:54;;;;;;;20.25;10.95;;;-0.50;99.90;;;;;;5031766;28;20387;-78
2023/12/24 00:45:20;;;;;;;14.90;9.10;;;-0.60;99.90;;;;;;5031834;28;20021;-78
2023/12/24 00:47:45;;;;;;;17.52;8.90;;;-0.60;99.90;;;;;;5031715;28;20415;-79
2023/12/24 00:50:11;;;;;;;21.08;10.23;;;-0.60;99.90;;;;;;5031830;28;20021;-78
2023/12/24 00:52:37;;;;;;;19.13;10.43;;;-0.50;99.90;;;;;;5031647;28;20025;-78
2023/12/24 00:55:03;;;;;;;15.60;9.18;;;-0.60;99.90;;;;;;5031686;28;20025;-78
2023/12/24 00:57:29;;;;;;;14.77;8.35;;;-0.60;99.90;;;;;;5031219;28;20545;-78
2023/12/24 00:59:54;;;;;;;10.75;7.55;;;-0.50;99.90;;;;;;5032395;28;20018;-81
2023/12/24 01:02:20;;;;;;;18.75;8.50;;;-0.50;99.90;;;;;;5031487;28;20029;-82
2023/12/24 01:04:46;;;;;;;13.32;8.75;;;-0.60;99.90;;;;;;5032647;28;20031;-81
2023/12/24 01:07:12;;;;;;;13.80;8.02;;;-0.50;99.90;;;;;;5031393;28;20017;-78
2023/12/24 01:09:39;;;;;;;15.82;7.68;;;-0.50;99.90;;;;;;5031664;28;20017;-80
2023/12/24 01:12:05;;;;;;;14.25;8.55;;;-0.50;99.90;;;;;;5031393;28;20754;-80
2023/12/24 01:14:31;;;;;;;13.13;7.35;;;-0.50;99.90;;;;;;5032709;28;20076;-81
2023/12/24 01:16:57;;;;;;;11.90;6.82;;;-0.50;99.90;;;;;;5031232;28;20030;-81
2023/12/24 01:19:23;;;;;;;14.88;8.82;;;-0.50;99.90;;;;;;5031382;28;20052;-81
2023/12/24 01:21:49;;;;;;;13.57;6.53;;;-0.50;99.90;;;;;;5021036;28;20057;-80
2023/12/24 01:24:15;;;;;;;10.38;6.35;;;-0.50;99.90;;;;;;5031157;28;20493;-81
2023/12/24 01:26:41;;;;;;;12.93;6.15;;;-0.50;99.90;;;;;;5032357;28;20029;-81
2023/12/24 01:29:06;;;;;;;10.57;6.57;;;-0.50;99.90;;;;;;5031346;28;20020;-81
2023/12/24 01:31:32;;;;;;;11.73;7.10;;;-0.50;99.90;;;;;;5030928;28;20433;-80
2023/12/24 01:33:58;;;;;;;13.90;6.72;;;-0.40;99.90;;;;;;5018717;28;20033;-80
2023/12/24 01:36:23;;;;;;;6.97;5.40;;;-0.40;99.90;;;;;;5032503;28;20071;-79
2023/12/24 01:38:49;;;;;;;13.25;6.00;;;-0.40;99.90;;;;;;5032351;28;20075;-81
2023/12/24 01:41:15;;;;;;;7.60;5.07;;;-0.40;99.90;;;;;;5031238;28;20427;-81
2023/12/24 01:43:42;;;;;;;9.50;5.60;;;-0.40;99.90;;;;;;5030970;28;20010;-81
2023/12/24 01:46:09;;;;;;;8.48;5.65;;;-0.40;99.90;;;;;;5031004;28;20120;-78
2023/12/24 01:48:35;;;;;;;12.43;5.47;;;-0.40;99.90;;;;;;5021678;28;20113;-79
2023/12/24 01:51:01;;;;;;;7.40;6.28;;;-0.40;99.90;;;;;;5030827;28;20030;-77
2023/12/24 01:53:27;;;;;;;9.77;6.28;;;-0.40;99.90;;;;;;5032424;28;20029;-78
2023/12/24 01:55:53;;;;;;;12.15;5.45;;;-0.40;99.90;;;;;;5030815;28;20038;-77
2023/12/24 01:58:19;;;;;;;11.00;6.50;;;-0.40;99.90;;;;;;5032038;28;20037;-77
2023/12/24 02:00:47;;;;;;;9.32;5.80;;;-0.40;99.90;;;;;;5030551;28;20094;-79
2023/12/24 02:03:13;;;;;;;8.07;5.50;;;-0.50;99.90;;;;;;5024760;28;20021;-82
2023/12/24 02:05:40;;;;;;;11.25;5.95;;;-0.40;99.90;;;;;;5030798;28;20030;-79
2023/12/24 02:08:07;;;;;;;9.48;7.20;;;-0.50;99.90;;;;;;5031099;28;20018;-77
2023/12/24 02:10:33;;;;;;;10.10;6.30;;;-0.50;99.90;;;;;;5034442;28;20022;-81
2023/12/24 02:12:59;;;;;;;9.93;6.50;;;-0.50;99.90;;;;;;5035912;28;20055;-81
2023/12/24 02:15:25;;;;;;;10.88;6.15;;;-0.50;99.90;;;;;;5035878;28;20029;-81
2023/12/24 02:17:51;;;;;;;11.45;6.63;;;-0.60;99.90;;;;;;5034655;28;20064;-81
2023/12/24 02:20:24;;;;;;;9.60;7.25;;;-0.60;99.90;;;;;;5035825;28;20025;-82
2023/12/24 02:22:50;;;;;;;9.52;6.75;;;-0.60;99.90;;;;;;5025338;28;20506;-80
2023/12/24 02:25:15;;;;;;;12.77;6.55;;;-0.60;99.90;;;;;;5031725;28;20013;-82
2023/12/24 02:27:55;;;;;;;10.45;5.80;;;-0.60;99.90;;;;;;5035699;28;20021;-82
2023/12/24 02:30:26;;;;;;;10.18;7.05;;;-0.70;99.90;;;;;;5034513;28;20021;-82
2023/12/24 02:32:56;;;;;;;7.63;5.60;;;-0.70;99.90;;;;;;5034010;28;20454;-81
2023/12/24 02:35:27;;;;;;;9.85;5.60;;;-0.70;99.90;;;;;;5019656;28;20503;-81
2023/12/24 02:37:53;;;;;;;7.57;6.03;;;-0.70;99.90;;;;;;5031144;28;20030;-80
2023/12/24 02:40:18;;;;;;;5.13;4.63;;;-0.70;99.90;;;;;;5028784;28;20032;-81
2023/12/24 02:42:44;;;;;;;9.70;5.40;;;-0.70;99.90;;;;;;5034244;28;20040;-82
2023/12/24 02:45:10;;;;;;;7.70;4.63;;;-0.70;99.90;;;;;;5035410;28;20357;-81
2023/12/24 02:47:37;;;;;;;6.97;5.03;;;-0.80;99.90;;;;;;5033882;28;20021;-80
2023/12/24 02:50:03;;;;;;;8.55;4.30;;;-0.80;99.90;;;;;;5030652;28;20026;-81
2023/12/24 02:52:29;;;;;;;7.57;4.60;;;-0.80;99.90;;;;;;5030357;28;20479;-82
2023/12/24 02:54:56;;;;;;;6.85;4.10;;;-0.80;99.90;;;;;;5035066;28;20032;-82
2023/12/24 02:57:22;;;;;;;5.00;3.58;;;-0.80;99.90;;;;;;5033805;28;20059;-80
2023/12/24 02:59:47;;;;;;;3.97;3.47;;;-0.90;99.90;;;;;;5029895;28;20533;-80
2023/12/24 03:02:13;;;;;;;3.55;2.70;;;-0.90;99.90;;;;;;5035113;28;20021;-80
2023/12/24 03:04:39;;;;;;;4.65;3.13;;;-0.90;99.90;;;;;;5034907;28;20498;-80
2023/12/24 03:07:04;;;;;;;3.85;3.47;;;-0.90;99.90;;;;;;5033767;28;20110;-81
2023/12/24 03:09:30;;;;;;;3.72;3.28;;;-0.90;99.90;;;;;;5032789;28;20026;-79
2023/12/24 03:11:56;;;;;;;5.38;3.22;;;-1.00;99.90;;;;;;5034433;28;20028;-81
2023/12/24 03:14:22;;;;;;;6.60;3.05;;;-1.00;99.90;;;;;;5034870;28;20021;-81
2023/12/24 03:16:48;;;;;;;4.93;3.15;;;-1.00;99.90;;;;;;5033196;28;20080;-81
2023/12/24 03:19:14;;;;;;;4.18;3.10;;;-1.00;99.90;;;;;;5033761;28;20071;-79
2023/12/24 03:21:43;;;;;;;5.03;3.20;;;-1.00;99.90;;;;;;5021874;28;20029;-82
2023/12/24 03:24:09;;;;;;;4.05;2.90;;;-1.00;99.90;;;;;;5033643;28;20018;-80
2023/12/24 03:26:35;;;;;;;5.03;3.55;;;-1.00;99.90;;;;;;5033252;28;20032;-81
2023/12/24 03:29:00;;;;;;;6.55;4.00;;;-1.00;99.90;;;;;;5033443;28;20496;-81
2023/12/24 03:31:26;;;;;;;7.20;4.05;;;-1.00;99.90;;;;;;5034295;28;20030;-81
2023/12/24 03:33:53;;;;;;;6.45;4.22;;;-1.00;99.90;;;;;;5034710;28;20025;-81
2023/12/24 03:36:18;;;;;;;4.65;4.00;;;-1.10;99.90;;;;;;5020922;28;20088;-81
2023/12/24 03:38:45;;;;;;;6.05;4.53;;;-1.10;99.90;;;;;;5026422;28;20072;-81
2023/12/24 03:41:10;;;;;;;5.15;4.03;;;-1.10;99.90;;;;;;5033028;28;20017;-79
2023/12/24 03:43:36;;;;;;;9.68;5.88;;;-1.10;99.90;;;;;;5022350;28;20029;-81
2023/12/24 03:46:02;;;;;;;7.35;4.68;;;-1.10;99.90;;;;;;5032744;28;20018;-81
2023/12/24 03:48:31;;;;;;;6.35;4.55;;;-1.10;99.90;;;;;;5026416;28;20112;-80
2023/12/24 03:50:57;;;;;;;9.18;4.60;;;-1.10;99.90;;;;;;5032865;28;20426;-80
2023/12/24 03:53:22;;;;;;;9.52;4.68;;;-1.10;99.90;;;;;;5032980;28;20029;-81
2023/12/24 03:55:48;;;;;;;8.32;5.20;;;-1.10;99.90;;;;;;5034001;28;20018;-82
2023/12/24 03:58:14;;;;;;;6.93;3.63;;;-1.10;99.90;;;;;;5032425;28;20029;-81
2023/12/24 04:00:40;;;;;;;9.70;5.70;;;-1.20;99.90;;;;;;5033709;28;20029;-80
2023/12/24 04:03:05;;;;;;;7.93;4.50;;;-1.10;99.90;;;;;;5029214;28;20029;-82
2023/12/24 04:05:31;;;;;;;7.32;4.93;;;-1.10;99.90;;;;;;5032647;28;20068;-80
2023/12/24 04:07:56;;;;;;;8.10;5.55;;;-1.10;99.90;;;;;;5032445;28;20033;-82
2023/12/24 04:10:22;;;;;;;11.90;6.65;;;-1.10;99.90;;;;;;5032574;28;20395;-81
2023/12/24 04:12:48;;;;;;;10.07;5.95;;;-1.10;99.90;;;;;;5033693;28;20036;-80
2023/12/24 04:15:13;;;;;;;17.15;7.82;;;-1.10;99.90;;;;;;5033533;28;20025;-82
2023/12/24 04:17:39;;;;;;;13.63;7.18;;;-1.10;99.90;;;;;;5032123;28;20029;-83
2023/12/24 04:20:05;;;;;;;16.52;7.55;;;-1.10;99.90;;;;;;5033710;28;20475;-82
2023/12/24 04:22:32;;;;;;;21.00;7.90;;;-1.10;99.90;;;;;;5025317;28;20108;-81
2023/12/24 04:24:59;;;;;;;10.43;5.25;;;-1.10;99.90;;;;;;5031905;28;20602;-82
2023/12/24 04:27:25;;;;;;;11.25;5.38;;;-1.10;99.90;;;;;;5033391;28;20025;-82
2023/12/24 04:29:51;;;;;;;19.73;6.60;;;-1.10;99.90;;;;;;5032078;28;20045;-82
2023/12/24 04:32:18;;;;;;;20.83;7.60;;;-1.10;99.90;;;;;;5032617;28;20509;-83
2023/12/24 04:34:44;;;;;;;26.85;8.13;;;-1.10;99.90;;;;;;5033382;28;20016;-81
2023/12/24 04:37:10;;;;;;;30.23;9.07;;;-1.10;99.90;;;;;;5033148;28;20049;-81
2023/12/24 04:39:36;;;;;;;27.83;9.00;;;-1.10;99.90;;;;;;5029449;28;20025;-82
2023/12/24 04:42:02;;;;;;;32.00;10.85;;;-1.10;99.90;;;;;;5031879;28;20072;-82
2023/12/24 04:44:28;;;;;;;29.20;9.95;;;-1.10;99.90;;;;;;5048515;28;20018;-82
2023/12/24 04:46:53;;;;;;;31.02;8.98;;;-1.10;99.90;;;;;;5032206;28;20091;-82
2023/12/24 04:49:19;;;;;;;26.40;8.60;;;-1.10;99.90;;;;;;5031840;28;20013;-83
2023/12/24 04:51:45;;;;;;;19.40;7.60;;;-1.10;99.90;;;;;;5031759;28;20112;-82
2023/12/24 04:54:11;;;;;;;15.65;7.18;;;-1.10;99.90;;;;;;5031564;28;20387;-81
2023/12/24 04:56:37;;;;;;;15.25;6.63;;;-1.10;99.90;;;;;;5031601;28;20112;-82
2023/12/24 04:59:02;;;;;;;14.57;5.78;;;-1.00;99.90;;;;;;5031653;28;20021;-81
2023/12/24 05:01:28;;;;;;;10.90;5.32;;;-1.00;99.90;;;;;;5033003;28;20392;-81
2023/12/24 05:03:54;;;;;;;7.57;4.00;;;-1.10;99.90;;;;;;5031493;28;20014;-80
2023/12/24 05:06:21;;;;;;;9.38;4.38;;;-1.10;99.90;;;;;;5031976;28;20057;-81
2023/12/24 05:08:47;;;;;;;7.47;4.50;;;-1.10;99.90;;;;;;5031414;28;20029;-78
2023/12/24 05:11:12;;;;;;;5.38;4.22;;;-1.10;99.90;;;;;;5020440;28;20029;-82
2023/12/24 05:13:38;;;;;;;5.60;3.70;;;-1.10;99.90;;;;;;5030501;28;20013;-82
2023/12/24 05:16:05;;;;;;;9.98;3.72;;;-1.10;99.90;;;;;;5032993;28;20093;-79
2023/12/24 05:18:31;;;;;;;14.07;4.88;;;-1.10;99.90;;;;;;5031254;28;20457;-79
2023/12/24 05:20:57;;;;;;;4.32;3.22;;;-1.10;99.90;;;;;;5031462;28;20040;-83
2023/12/24 05:23:24;;;;;;;5.10;3.22;;;-1.20;99.90;;;;;;5031239;28;20495;-83
2023/12/24 05:25:50;;;;;;;3.88;3.00;;;-1.10;99.90;;;;;;5031562;28;20026;-79
2023/12/24 05:28:17;;;;;;;6.97;3.60;;;-1.10;99.90;;;;;;5031047;28;20118;-80
2023/12/24 05:30:45;;;;;;;7.60;3.30;;;-1.10;99.90;;;;;;5032767;28;20022;-83
2023/12/24 05:33:11;;;;;;;4.75;3.92;;;-1.10;99.90;;;;;;5030951;28;20096;-83
2023/12/24 05:35:37;;;;;;;5.05;3.33;;;-1.10;99.90;;;;;;5031277;28;20029;-79
2023/12/24 05:38:03;;;;;;;5.93;3.58;;;-1.20;99.90;;;;;;5032212;28;20040;-82
2023/12/24 05:40:29;;;;;;;8.95;4.30;;;-1.10;99.90;;;;;;5028873;28;20233;-79
2023/12/24 05:42:54;;;;;;;5.43;3.50;;;-1.20;99.90;;;;;;5030996;28;20025;-77
2023/12/24 05:45:20;;;;;;;5.80;3.70;;;-1.20;99.90;;;;;;5034419;28;20044;-77
2023/12/24 05:47:46;;;;;;;10.30;3.83;;;-1.20;99.90;;;;;;5035739;28;20036;-79
2023/12/24 05:50:12;;;;;;;6.55;3.47;;;-1.20;99.90;;;;;;5036294;28;20475;-78
2023/12/24 05:52:39;;;;;;;13.77;5.75;;;-1.20;99.90;;;;;;5034441;28;20457;-78
2023/12/24 05:55:07;;;;;;;10.48;5.45;;;-1.20;99.90;;;;;;5028150;28;20018;-78
2023/12/24 05:57:32;;;;;;;7.63;4.40;;;-1.20;99.90;;;;;;5035958;28;20034;-79
2023/12/24 05:59:58;;;;;;;12.40;5.40;;;-1.20;99.90;;;;;;5035114;28;20044;-78
2023/12/24 06:02:24;;;;;;;33.25;15.20;;;-1.20;99.90;;;;;;5030059;28;20021;-78
2023/12/24 06:04:50;;;;;;;158.40;55.17;;;-1.20;99.90;;;;;;5034800;28;20025;-78
2023/12/24 06:07:15;;;;;;;29.65;12.38;;;-1.20;99.90;;;;;;5051346;28;20024;-78
2023/12/24 06:09:41;;;;;;;89.35;27.95;;;-1.20;99.90;;;;;;5034622;28;20024;-78
2023/12/24 06:12:07;;;;;;;64.43;18.83;;;-1.20;99.90;;;;;;5035646;28;20387;-78
2023/12/24 06:14:33;;;;;;;205.80;64.20;;;-1.20;99.90;;;;;;5034442;28;20029;-78
2023/12/24 06:16:59;;;;;;;407.15;124.05;;;-1.20;99.90;;;;;;5035795;28;20029;-77
2023/12/24 06:19:25;;;;;;;394.55;123.28;;;-1.20;99.90;;;;;;5035397;28;20033;-78
2023/12/24 06:21:51;;;;;;;404.60;125.63;;;-1.20;99.90;;;;;;5034261;28;20024;-77
2023/12/24 06:24:21;;;;;;;324.63;97.05;;;-1.10;99.90;;;;;;5034474;28;20075;-77
2023/12/24 06:26:50;;;;;;;348.65;106.90;;;-1.10;99.90;;;;;;5035448;28;20013;-81
2023/12/24 06:29:15;;;;;;;398.95;123.30;;;-1.10;99.90;;;;;;5025470;28;20018;-81
2023/12/24 06:31:41;;;;;;;536.72;185.15;;;-1.10;99.90;;;;;;5033827;28;20495;-80
2023/12/24 06:34:06;;;;;;;389.70;117.10;;;-1.10;99.90;;;;;;5034159;28;20033;-81
2023/12/24 06:36:32;;;;;;;243.52;67.70;;;-1.10;99.90;;;;;;5029146;28;20018;-77
2023/12/24 06:39:07;;;;;;;70.82;23.90;;;-1.00;99.90;;;;;;5028877;28;20029;-77
2023/12/24 06:41:33;;;;;;;221.25;63.90;;;-1.10;99.90;;;;;;5033103;28;20049;-77
2023/12/24 06:43:59;;;;;;;442.30;137.80;;;-1.00;99.90;;;;;;5033523;28;20060;-77
2023/12/24 06:46:25;;;;;;;300.38;96.63;;;-1.00;99.90;;;;;;5035158;28;20395;-76
2023/12/24 06:48:51;;;;;;;336.80;106.30;;;-1.00;99.90;;;;;;5033803;28;20033;-80
2023/12/24 06:51:17;;;;;;;196.35;53.53;;;-1.00;99.90;;;;;;5035058;28;20491;-81
2023/12/24 06:53:43;;;;;;;266.83;64.18;;;-1.00;99.90;;;;;;5033690;28;20018;-81
2023/12/24 06:56:09;;;;;;;79.75;25.80;;;-1.00;99.90;;;;;;5032810;28;20037;-77
2023/12/24 06:58:34;;;;;;;66.75;22.33;;;-1.00;99.90;;;;;;5033184;28;20037;-81
2023/12/24 07:01:00;;;;;;;184.77;65.57;;;-1.00;99.90;;;;;;5034298;28;20021;-77
2023/12/24 07:03:26;;;;;;;302.98;92.25;;;-0.90;99.90;;;;;;5035231;28;20045;-77
2023/12/24 07:05:53;;;;;;;154.55;49.65;;;-0.90;99.90;;;;;;5033719;28;20546;-78
2023/12/24 07:08:20;;;;;;;177.50;50.10;;;-0.90;99.90;;;;;;5050620;28;20052;-81
2023/12/24 07:10:46;;;;;;;96.63;26.75;;;-0.90;99.90;;;;;;5033973;28;20040;-81
2023/12/24 07:13:11;;;;;;;116.70;28.73;;;-0.90;99.90;;;;;;5032208;28;20022;-81
2023/12/24 07:15:39;;;;;;;96.53;26.45;;;-0.90;99.90;;;;;;5033371;28;20035;-78
2023/12/24 07:18:05;;;;;;;140.50;42.00;;;-0.90;99.90;;;;;;5032632;28;20045;-78
2023/12/24 07:20:30;;;;;;;260.50;90.20;;;-0.90;99.90;;;;;;5033711;28;20035;-78
2023/12/24 07:22:56;;;;;;;254.95;86.30;;;-0.90;99.90;;;;;;5032829;28;20033;-77
2023/12/24 07:25:21;;;;;;;373.98;114.25;;;-0.80;99.90;;;;;;5033590;28;20053;-77
2023/12/24 07:27:47;;;;;;;197.80;59.88;;;-0.80;99.90;;;;;;5033222;28;20032;-78
2023/12/24 07:30:13;;;;;;;90.15;25.17;;;-0.80;99.90;;;;;;5032845;28;20030;-78
2023/12/24 07:32:46;;;;;;;76.80;26.15;;;-0.70;99.90;;;;;;5033089;28;20053;-78
2023/12/24 07:35:12;;;;;;;27.63;13.48;;;-0.70;99.90;;;;;;5032913;28;20164;-78
2023/12/24 07:37:38;;;;;;;32.75;12.98;;;-0.60;99.90;;;;;;5032775;28;20376;-78
2023/12/24 07:40:08;;;;;;;73.07;24.38;;;-0.60;99.90;;;;;;5031870;28;20025;-76
2023/12/24 07:42:35;;;;;;;79.20;30.52;;;-0.60;99.90;;;;;;5034189;28;20564;-77
2023/12/24 07:45:01;;;;;;;113.53;37.53;;;-0.50;99.90;;;;;;5032337;28;20017;-76
2023/12/24 07:47:26;;;;;;;82.30;26.45;;;-0.60;99.90;;;;;;5032838;28;20017;-82
2023/12/24 07:49:52;;;;;;;59.83;20.02;;;-0.50;99.90;;;;;;5032853;28;20418;-83
2023/12/24 07:52:17;;;;;;;41.60;16.02;;;-0.50;99.90;;;;;;5034074;28;20029;-77
2023/12/24 07:54:43;;;;;;;48.95;16.83;;;-0.50;99.90;;;;;;5048440;28;20055;-80
2023/12/24 07:57:09;;;;;;;23.67;12.40;;;-0.40;99.90;;;;;;5031021;28;20446;-80
2023/12/24 07:59:34;;;;;;;22.77;11.48;;;-0.40;99.90;;;;;;5025326;28;20025;-77
2023/12/24 08:02:00;;;;;;;19.50;8.93;;;-0.40;99.90;;;;;;5032577;28;20013;-79
2023/12/24 08:04:26;;;;;;;39.72;16.90;;;-0.40;99.90;;;;;;5031588;28;20544;-80
2023/12/24 08:06:52;;;;;;;34.65;13.82;;;-0.30;99.90;;;;;;5031536;28;20036;-77
2023/12/24 08:09:17;;;;;;;19.75;8.80;;;-0.30;99.90;;;;;;5033493;28;20060;-77
2023/12/24 08:11:43;;;;;;;15.50;8.00;;;-0.30;99.90;;;;;;5032534;28;20033;-78
2023/12/24 08:14:09;;;;;;;17.48;8.10;;;-0.20;99.90;;;;;;5032474;28;20410;-80
2023/12/24 08:16:35;;;;;;;14.90;8.02;;;-0.20;99.90;;;;;;5033249;28;20022;-78
2023/12/24 08:19:01;;;;;;;12.15;7.03;;;-0.20;99.90;;;;;;5027337;28;20101;-77
2023/12/24 08:21:26;;;;;;;14.32;8.55;;;-0.10;99.90;;;;;;5025705;28;20172;-78
2023/12/24 08:23:52;;;;;;;18.55;10.27;;;-0.10;99.90;;;;;;5030617;28;20032;-82
2023/12/24 08:26:18;;;;;;;18.95;8.57;;;-0.10;99.90;;;;;;5033212;28;20387;-82
2023/12/24 08:28:44;;;;;;;20.58;9.65;;;-0.10;99.90;;;;;;5030570;28;20034;-82
2023/12/24 08:31:10;;;;;;;19.38;8.68;;;-0.10;99.90;;;;;;5040594;28;20108;-81
2023/12/24 08:33:37;;;;;;;35.53;14.30;;;-0.10;99.90;;;;;;5036734;28;20049;-82
2023/12/24 08:36:03;;;;;;;23.55;9.45;;;-0.10;99.90;;;;;;5041799;28;20368;-80
2023/12/24 08:38:29;;;;;;;30.98;13.95;;;-0.10;99.90;;;;;;5035270;28;20050;-83
2023/12/24 08:40:55;;;;;;;25.40;11.85;;;0.00;99.90;;;;;;5041043;28;20424;-83
2023/12/24 08:43:20;;;;;;;50.40;22.05;;;0.10;99.90;;;;;;5035535;28;20487;-81
2023/12/24 08:45:46;;;;;;;46.20;20.83;;;0.10;99.90;;;;;;5035439;28;20030;-80
2023/12/24 08:48:12;;;;;;;39.67;17.02;;;0.10;99.90;;;;;;5037874;28;20040;-80
2023/12/24 08:50:37;;;;;;;34.38;15.77;;;0.20;99.90;;;;;;5032320;28;20049;-76
2023/12/24 08:53:04;;;;;;;38.05;16.38;;;0.20;99.90;;;;;;5030928;28;20018;-79
2023/12/24 08:55:30;;;;;;;17.27;10.18;;;0.30;99.90;;;;;;5030880;28;20057;-80
2023/12/24 08:57:56;;;;;;;23.02;10.38;;;0.40;99.90;;;;;;5032663;28;20069;-80
2023/12/24 09:00:21;;;;;;;32.53;15.88;;;0.40;99.90;;;;;;5032979;28;20022;-80
2023/12/24 09:02:47;;;;;;;40.50;20.73;;;0.40;99.90;;;;;;5022983;28;20017;-81
2023/12/24 09:05:14;;;;;;;104.40;47.75;;;0.50;99.90;;;;;;5031372;28;20558;-81
2023/12/24 09:07:39;;;;;;;67.32;30.13;;;0.60;99.90;;;;;;5022555;28;20030;-81
2023/12/24 09:10:05;;;;;;;41.83;16.70;;;0.60;99.90;;;;;;5031343;28;20025;-80
2023/12/24 09:12:31;;;;;;;21.70;10.27;;;0.70;99.90;;;;;;5018556;28;20487;-81
2023/12/24 09:14:56;;;;;;;26.08;12.68;;;0.70;99.90;;;;;;5031365;28;20026;-80
2023/12/24 09:17:22;;;;;;;17.38;9.85;;;0.70;99.90;;;;;;5023319;28;20084;-81
2023/12/24 09:19:48;;;;;;;25.48;12.52;;;0.80;99.90;;;;;;5030775;28;20495;-81
2023/12/24 09:22:13;;;;;;;17.73;11.00;;;0.90;99.90;;;;;;5030890;28;20029;-80
2023/12/24 09:24:39;;;;;;;26.52;14.15;;;0.90;99.90;;;;;;5031470;28;20033;-81
2023/12/24 09:27:05;;;;;;;26.23;12.00;;;1.00;99.90;;;;;;5031044;28;20064;-81
2023/12/24 09:29:30;;;;;;;18.77;10.80;;;1.00;99.90;;;;;;5031424;28;20360;-81
2023/12/24 09:31:56;;;;;;;15.38;7.97;;;1.10;99.90;;;;;;5030768;28;20148;-81
2023/12/24 09:34:21;;;;;;;21.98;10.38;;;1.10;99.90;;;;;;5031209;28;20029;-80
2023/12/24 09:36:47;;;;;;;21.38;12.27;;;1.20;99.90;;;;;;5030748;28;20033;-80
2023/12/24 09:39:13;;;;;;;21.02;11.25;;;1.20;99.90;;;;;;5032501;28;20024;-81
2023/12/24 09:41:38;;;;;;;21.00;11.70;;;1.30;99.90;;;;;;5029885;28;20108;-79
2023/12/24 09:44:06;;;;;;;23.33;11.50;;;1.30;99.90;;;;;;5026286;28;20018;-81
2023/12/24 09:46:32;;;;;;;15.35;8.05;;;1.30;99.90;;;;;;5030766;28;20021;-81
2023/12/24 09:48:58;;;;;;;15.75;7.13;;;1.40;99.90;;;;;;5030467;28;20018;-81
2023/12/24 09:51:25;;;;;;;14.55;8.55;;;1.40;99.90;;;;;;5026896;28;20384;-80
2023/12/24 09:53:52;;;;;;;21.55;11.43;;;1.40;99.90;;;;;;5030784;28;20047;-80
2023/12/24 09:56:18;;;;;;;19.55;10.93;;;1.30;99.90;;;;;;5030847;28;20020;-81
2023/12/24 09:58:45;;;;;;;15.90;8.50;;;1.30;99.90;;;;;;5030744;28;20041;-81
2023/12/24 10:01:11;;;;;;;16.73;9.05;;;1.20;99.90;;;;;;5031351;28;20623;-81
2023/12/24 10:03:37;;;;;;;19.85;11.15;;;1.20;99.90;;;;;;5030757;28;20033;-80
2023/12/24 10:06:09;;;;;;;16.20;8.30;;;1.20;99.90;;;;;;5031767;28;20021;-81
2023/12/24 10:08:35;;;;;;;18.90;8.93;;;1.30;99.90;;;;;;5026681;28;20045;-81
2023/12/24 10:11:20;;;;;;;14.40;8.10;;;1.20;99.90;;;;;;5029729;28;20057;-81
2023/12/24 10:14:06;;;;;;;19.35;8.88;;;1.10;99.90;;;;;;5027552;28;20064;-81
2023/12/24 10:16:43;;;;;;;12.50;7.53;;;1.20;99.90;;;;;;5041827;28;20522;-79
2023/12/24 10:19:09;;;;;;;16.85;10.57;;;1.20;99.90;;;;;;5046166;28;20037;-79
2023/12/24 10:21:35;;;;;;;16.67;9.20;;;1.20;99.90;;;;;;5030595;28;20112;-81
2023/12/24 10:24:06;;;;;;;11.90;7.15;;;1.20;99.90;;;;;;5030597;28;20104;-78
2023/12/24 10:26:31;;;;;;;14.18;7.22;;;1.20;99.90;;;;;;5030779;28;20021;-78
2023/12/24 10:28:57;;;;;;;10.82;6.47;;;1.20;99.90;;;;;;5031933;28;20022;-78
2023/12/24 10:31:23;;;;;;;9.77;6.50;;;1.30;99.90;;;;;;5033242;28;20033;-78
2023/12/24 10:34:01;;;;;;;10.05;6.10;;;1.20;99.90;;;;;;5031955;28;20029;-77
2023/12/24 10:36:27;;;;;;;8.90;5.38;;;1.30;99.90;;;;;;5033507;28;20032;-77
2023/12/24 10:38:52;;;;;;;10.82;7.85;;;1.30;99.90;;;;;;5034835;28;20037;-75
2023/12/24 10:41:18;;;;;;;11.98;7.53;;;1.30;99.90;;;;;;5034612;28;20387;-76
2023/12/24 10:43:43;;;;;;;14.85;8.20;;;1.30;99.90;;;;;;5035086;28;20029;-76
2023/12/24 10:46:09;;;;;;;15.65;8.75;;;1.30;99.90;;;;;;5034825;28;20110;-75
2023/12/24 10:48:35;;;;;;;9.00;6.13;;;1.30;99.90;;;;;;5035144;28;20018;-74
2023/12/24 10:51:00;;;;;;;12.25;7.28;;;1.20;99.90;;;;;;5033123;28;20033;-75
2023/12/24 10:53:26;;;;;;;13.65;7.88;;;1.10;99.90;;;;;;5034983;28;20101;-77
2023/12/24 10:56:04;;;;;;;10.75;6.35;;;1.20;99.90;;;;;;5024468;28;20021;-79
2023/12/24 10:58:59;;;;;;;32.08;16.38;;;1.20;99.90;;;;;;5029355;28;20224;-83
2023/12/24 11:01:24;;;;;;;22.02;13.00;;;1.20;99.90;;;;;;5034366;28;20025;-81
2023/12/24 11:03:52;;;;;;;18.80;11.50;;;1.10;99.90;;;;;;5033741;28;20128;-80
2023/12/24 11:06:36;;;;;;;10.60;7.53;;;1.20;99.90;;;;;;5033471;28;20044;-81
2023/12/24 11:09:31;;;;;;;11.90;7.75;;;1.10;99.90;;;;;;5035126;28;20368;-85
2023/12/24 11:12:00;;;;;;;13.55;7.65;;;1.10;99.90;;;;;;5035672;28;20164;-79
2023/12/24 11:14:40;;;;;;;10.98;8.05;;;1.10;99.90;;;;;;5032818;28;20411;-87
2023/12/24 11:17:08;;;;;;;13.23;8.15;;;1.10;99.90;;;;;;5034060;28;20440;-79
2023/12/24 11:19:41;;;;;;;26.70;15.20;;;1.10;99.90;;;;;;5032917;28;20087;-79
2023/12/24 11:22:07;;;;;;;24.13;11.85;;;1.00;99.90;;;;;;5033229;28;20060;-78
2023/12/24 11:24:34;;;;;;;19.58;8.88;;;1.00;99.90;;;;;;5033510;28;20514;-78
2023/12/24 11:26:59;;;;;;;18.08;10.45;;;1.00;99.90;;;;;;5030612;28;20020;-78
2023/12/24 11:29:48;;;;;;;16.35;10.10;;;1.00;99.90;;;;;;5034717;28;20021;-78
2023/12/24 11:32:26;;;;;;;27.08;11.05;;;1.10;99.90;;;;;;5027869;28;20045;-75
2023/12/24 11:34:53;;;;;;;74.18;35.25;;;1.00;99.90;;;;;;5034119;28;20029;-76
2023/12/24 11:37:39;;;;;;;42.08;19.05;;;1.00;99.90;;;;;;5030439;28;20087;-77
2023/12/24 11:40:15;;;;;;;34.05;14.90;;;1.00;99.90;;;;;;5029296;28;20038;-77
2023/12/24 11:42:43;;;;;;;46.00;21.05;;;0.90;99.90;;;;;;5033162;28;20026;-78
2023/12/24 11:45:26;;;;;;;35.90;15.23;;;0.90;99.90;;;;;;5031176;28;20364;-78
2023/12/24 11:47:52;;;;;;;53.05;24.27;;;0.90;99.90;;;;;;5032810;28;20159;-77
2023/12/24 11:50:18;;;;;;;50.85;22.13;;;0.80;99.90;;;;;;5032502;28;20042;-77
2023/12/24 11:52:46;;;;;;;85.60;36.65;;;0.80;99.90;;;;;;5032682;28;20037;-77
2023/12/24 11:55:16;;;;;;;75.32;31.23;;;0.80;99.90;;;;;;5032771;28;20113;-78
2023/12/24 11:57:42;;;;;;;50.45;20.85;;;0.80;99.90;;;;;;5032090;28;20042;-78
2023/12/24 12:00:23;;;;;;;108.43;38.92;;;0.80;99.90;;;;;;5032526;28;20056;-77
2023/12/24 12:02:59;;;;;;;50.67;20.00;;;0.80;99.90;;;;;;5034030;28;20371;-77
2023/12/24 12:05:26;;;;;;;83.68;30.58;;;0.70;99.90;;;;;;5033253;28;20040;-78
2023/12/24 12:07:52;;;;;;;137.43;42.50;;;0.70;99.90;;;;;;5029971;28;20463;-78
2023/12/24 12:10:18;;;;;;;142.95;52.65;;;0.70;99.90;;;;;;5032398;28;20058;-78
2023/12/24 12:12:45;;;;;;;192.30;66.00;;;0.60;99.90;;;;;;5032045;28;20019;-78
2023/12/24 12:15:11;;;;;;;212.40;71.40;;;0.70;99.90;;;;;;5032721;28;20025;-78
2023/12/24 12:17:37;;;;;;;114.20;40.83;;;0.60;99.90;;;;;;5033211;28;20036;-77
2023/12/24 12:20:04;;;;;;;77.70;31.73;;;0.60;99.90;;;;;;5031863;28;20029;-78
2023/12/24 12:22:30;;;;;;;57.72;23.02;;;0.60;99.90;;;;;;5032685;28;20033;-78
2023/12/24 12:24:55;;;;;;;59.25;26.95;;;0.60;99.90;;;;;;5031676;28;20022;-78
2023/12/24 12:27:21;;;;;;;63.28;29.10;;;0.60;99.90;;;;;;5033212;28;20029;-78
2023/12/24 12:29:46;;;;;;;91.45;41.90;;;0.60;99.90;;;;;;5033452;28;20032;-78
2023/12/24 12:32:12;;;;;;;120.18;50.00;;;0.60;99.90;;;;;;5031588;28;20045;-78
2023/12/24 12:34:39;;;;;;;120.78;54.22;;;0.60;99.90;;;;;;5032786;28;20033;-79